createdAt,value
2018-07-28T00:01:52.784Z,259.77
2018-07-28T00:04:24.669Z,261.75
2018-07-28T00:06:56.382Z,295.42
2018-07-28T00:09:28.539Z,275.00
2018-07-28T00:11:59.636Z,263.85
2018-07-28T00:14:31.478Z,261.37
2018-07-28T00:17:02.511Z,261.95
2018-07-28T00:19:38.883Z,257.92
2018-07-28T00:22:15.513Z,260.90
2018-07-28T00:24:46.690Z,243.27
2018-07-28T00:27:18.332Z,238.85
2018-07-28T00:29:49.816Z,228.10
2018-07-28T00:32:21.265Z,232.67
2018-07-28T00:34:53.180Z,255.85
2018-07-28T00:37:24.572Z,245.25
2018-07-28T00:39:56.089Z,247.55
2018-07-28T00:42:27.277Z,241.45
2018-07-28T00:44:58.507Z,239.68
2018-07-28T00:47:29.569Z,237.55
2018-07-28T00:50:00.751Z,252.80
2018-07-28T00:52:32.075Z,238.35
2018-07-28T00:55:03.525Z,242.53
2018-07-28T00:57:34.814Z,265.77
2018-07-28T01:00:07.583Z,253.77
2018-07-28T01:02:39.159Z,251.40
2018-07-28T01:05:10.561Z,252.68
2018-07-28T01:07:41.508Z,247.85
2018-07-28T01:10:12.535Z,233.78
2018-07-28T01:12:44.455Z,241.60
2018-07-28T01:15:15.624Z,251.85
2018-07-28T01:17:46.749Z,233.57
2018-07-28T01:20:19.307Z,244.10
2018-07-28T01:22:50.420Z,235.90
2018-07-28T01:25:23.053Z,235.90
2018-07-28T01:27:54.179Z,235.55
2018-07-28T01:30:32.965Z,229.50
2018-07-28T01:33:04.880Z,233.02
2018-07-28T01:35:37.048Z,232.95
2018-07-28T01:38:09.901Z,235.90
2018-07-28T01:40:40.917Z,242.85
2018-07-28T01:43:13.457Z,231.32
2018-07-28T01:45:44.618Z,233.47
2018-07-28T01:48:15.749Z,229.40
2018-07-28T01:50:46.797Z,236.20
2018-07-28T01:53:18.220Z,221.85
2018-07-28T01:55:49.605Z,225.60
2018-07-28T01:58:20.626Z,226.07
2018-07-28T02:00:51.769Z,226.22
2018-07-28T02:03:22.876Z,227.22
2018-07-28T02:05:54.203Z,235.90
2018-07-28T02:08:25.388Z,223.87
2018-07-28T02:10:57.323Z,231.23
2018-07-28T02:13:28.968Z,231.53
2018-07-28T02:16:00.192Z,231.55
2018-07-28T02:18:31.538Z,234.70
2018-07-28T02:21:04.883Z,241.65
2018-07-28T02:23:36.525Z,228.40
2018-07-28T02:26:07.719Z,230.43
2018-07-28T02:28:38.683Z,218.52
2018-07-28T02:31:10.039Z,229.72
2018-07-28T02:33:41.223Z,225.47
2018-07-28T02:36:12.276Z,228.10
2018-07-28T02:38:43.183Z,230.83
2018-07-28T02:41:14.624Z,244.18
2018-07-28T02:43:45.635Z,240.40
2018-07-28T02:46:16.546Z,237.00
2018-07-28T02:48:48.667Z,236.82
2018-07-28T02:51:19.572Z,247.27
2018-07-28T02:53:50.508Z,238.75
2018-07-28T02:56:21.585Z,240.15
2018-07-28T02:58:52.780Z,260.17
2018-07-28T03:01:24.251Z,267.80
2018-07-28T03:03:55.359Z,251.47
2018-07-28T03:06:26.456Z,239.10
2018-07-28T03:09:13.751Z,230.12
2018-07-28T03:11:57.331Z,230.75
2018-07-28T03:14:30.536Z,234.25
2018-07-28T03:17:01.629Z,228.67
2018-07-28T03:19:32.635Z,229.47
2018-07-28T03:22:05.105Z,217.93
2018-07-28T03:24:36.731Z,223.68
2018-07-28T03:27:08.124Z,225.18
2018-07-28T03:29:39.056Z,223.15
2018-07-28T03:32:10.255Z,226.27
2018-07-28T03:34:41.698Z,238.43
2018-07-28T03:37:12.709Z,230.05
2018-07-28T03:39:43.836Z,248.65
2018-07-28T03:42:14.988Z,245.97
2018-07-28T03:44:45.959Z,226.52
2018-07-28T03:47:17.043Z,235.48
2018-07-28T03:49:49.022Z,236.20
2018-07-28T03:52:20.068Z,233.20
2018-07-28T03:54:51.045Z,230.05
2018-07-28T03:57:23.428Z,228.10
2018-07-28T03:59:54.644Z,221.68
2018-07-28T04:02:25.547Z,234.18
2018-07-28T04:04:56.508Z,219.85
2018-07-28T04:07:27.631Z,221.32
2018-07-28T04:09:58.898Z,228.40
2018-07-28T04:12:30.679Z,222.82
2018-07-28T04:15:01.973Z,237.97
2018-07-28T04:17:33.966Z,238.18
2018-07-28T04:20:08.042Z,218.67
2018-07-28T04:22:40.389Z,223.43
2018-07-28T04:25:13.311Z,218.05
2018-07-28T04:27:45.988Z,216.23
2018-07-28T04:30:18.135Z,231.13
2018-07-28T04:32:49.327Z,218.00
2018-07-28T04:35:20.208Z,229.20
2018-07-28T04:37:51.469Z,229.35
2018-07-28T04:40:24.719Z,224.67
2018-07-28T04:42:55.888Z,238.05
2018-07-28T04:45:26.934Z,226.50
2018-07-28T04:47:58.079Z,226.05
2018-07-28T04:50:29.474Z,226.12
2018-07-28T04:53:00.801Z,222.75
2018-07-28T04:55:32.166Z,226.65
2018-07-28T04:58:04.672Z,227.60
2018-07-28T05:00:36.190Z,226.58
2018-07-28T05:03:09.000Z,232.30
2018-07-28T05:05:40.096Z,240.03
2018-07-28T05:08:12.606Z,237.20
2018-07-28T05:10:43.809Z,226.55
2018-07-28T05:13:14.729Z,226.75
2018-07-28T05:15:45.745Z,251.42
2018-07-28T05:18:18.585Z,237.45
2018-07-28T05:20:50.143Z,233.25
2018-07-28T05:23:21.754Z,238.65
2018-07-28T05:25:52.741Z,231.43
2018-07-28T05:28:24.200Z,229.25
2018-07-28T05:30:55.236Z,240.80
2018-07-28T05:33:26.387Z,249.55
2018-07-28T05:35:57.338Z,246.68
2018-07-28T05:38:28.776Z,241.35
2018-07-28T05:40:59.831Z,236.80
2018-07-28T05:43:31.133Z,234.65
2018-07-28T05:46:02.532Z,225.87
2018-07-28T05:48:34.558Z,239.50
2018-07-28T05:51:05.599Z,247.82
2018-07-28T05:53:39.594Z,253.83
2018-07-28T05:56:13.204Z,235.55
2018-07-28T05:58:44.237Z,233.00
2018-07-28T06:01:15.655Z,240.43
2018-07-28T06:03:47.207Z,241.65
2018-07-28T06:06:18.131Z,236.12
2018-07-28T06:08:49.644Z,245.85
2018-07-28T06:11:21.484Z,253.73
2018-07-28T06:13:52.545Z,232.98
2018-07-28T06:16:23.565Z,234.12
2018-07-28T06:18:55.308Z,234.27
2018-07-28T06:21:29.733Z,237.53
2018-07-28T06:24:01.217Z,233.80
2018-07-28T06:26:32.055Z,263.15
2018-07-28T06:29:04.491Z,248.43
2018-07-28T06:31:35.496Z,244.60
2018-07-28T06:34:06.913Z,236.07
2018-07-28T06:36:37.900Z,245.15
2018-07-28T06:39:14.842Z,250.90
2018-07-28T06:41:45.843Z,251.67
2018-07-28T06:44:17.006Z,241.97
2018-07-28T06:46:47.854Z,240.92
2018-07-28T06:49:19.074Z,234.60
2018-07-28T06:51:50.128Z,256.57
2018-07-28T06:54:21.493Z,248.68
2018-07-28T06:56:52.808Z,257.92
2018-07-28T06:59:23.803Z,269.20
2018-07-28T07:01:54.745Z,275.75
2018-07-28T07:04:26.281Z,250.05
2018-07-28T07:06:57.737Z,285.25
2018-07-28T07:09:28.892Z,280.80
2018-07-28T07:12:00.692Z,266.75
2018-07-28T07:14:32.606Z,268.93
2018-07-28T07:17:04.511Z,248.85
2018-07-28T07:19:37.250Z,257.95
2018-07-28T07:22:08.172Z,272.55
2018-07-28T07:24:39.676Z,270.57
2018-07-28T07:27:10.584Z,254.90
2018-07-28T07:29:42.047Z,261.85
2018-07-28T07:32:13.121Z,269.15
2018-07-28T07:34:44.321Z,244.82
2018-07-28T07:37:16.394Z,257.92
2018-07-28T07:39:48.493Z,251.02
2018-07-28T07:42:19.793Z,264.98
2018-07-28T07:44:50.747Z,255.45
2018-07-28T07:47:21.777Z,283.17
2018-07-28T07:49:52.795Z,274.80
2018-07-28T07:52:23.836Z,285.88
2018-07-28T07:54:57.551Z,270.52
2018-07-28T07:57:29.077Z,296.35
2018-07-28T08:00:00.178Z,286.05
2018-07-28T08:02:31.470Z,269.20
2018-07-28T08:05:03.702Z,285.30
2018-07-28T08:07:39.957Z,273.23
2018-07-28T08:10:15.409Z,285.80
2018-07-28T08:12:46.933Z,277.87
2018-07-28T08:15:21.256Z,261.57
2018-07-28T08:17:52.339Z,290.65
2018-07-28T08:20:23.270Z,284.70
2018-07-28T08:22:54.276Z,273.20
2018-07-28T08:25:26.390Z,286.92
2018-07-28T08:27:57.592Z,276.40
2018-07-28T08:30:29.918Z,279.02
2018-07-28T08:33:03.964Z,281.85
2018-07-28T08:35:36.402Z,276.25
2018-07-28T08:38:10.213Z,292.13
2018-07-28T08:40:42.725Z,274.67
2018-07-28T08:43:13.923Z,302.02
2018-07-28T08:45:44.923Z,275.60
2018-07-28T08:48:16.234Z,283.57
2018-07-28T08:50:47.287Z,283.55
2018-07-28T08:53:18.415Z,266.42
2018-07-28T08:55:49.584Z,281.98
2018-07-28T08:58:20.632Z,288.05
2018-07-28T09:00:51.981Z,304.07
2018-07-28T09:03:23.444Z,287.10
2018-07-28T09:05:54.865Z,301.80
2018-07-28T09:08:26.749Z,304.85
2018-07-28T09:10:58.216Z,310.73
2018-07-28T09:13:29.806Z,301.25
2018-07-28T09:16:01.607Z,270.88
2018-07-28T09:18:32.926Z,281.63
2018-07-28T09:21:05.598Z,284.37
2018-07-28T09:23:36.880Z,307.02
2018-07-28T09:26:13.280Z,291.75
2018-07-28T09:28:45.256Z,306.80
2018-07-28T09:31:16.327Z,308.23
2018-07-28T09:33:47.292Z,337.55
2018-07-28T09:36:18.696Z,302.22
2018-07-28T09:38:50.275Z,303.20
2018-07-28T09:41:21.198Z,315.37
2018-07-28T09:43:52.205Z,279.32
2018-07-28T09:46:23.396Z,304.02
2018-07-28T09:48:54.265Z,312.08
2018-07-28T09:51:25.605Z,312.48
2018-07-28T09:53:56.836Z,292.97
2018-07-28T09:56:28.036Z,346.77
2018-07-28T09:58:59.033Z,286.62
2018-07-28T10:01:31.011Z,267.50
2018-07-28T10:04:02.649Z,285.50
2018-07-28T10:06:46.241Z,301.23
2018-07-28T10:09:18.890Z,292.40
2018-07-28T10:11:49.892Z,297.85
2018-07-28T10:14:20.911Z,310.98
2018-07-28T10:16:51.879Z,298.57
2018-07-28T10:19:23.108Z,310.90
2018-07-28T10:21:54.058Z,301.58
2018-07-28T10:24:25.836Z,289.32
2018-07-28T10:26:56.846Z,331.00
2018-07-28T10:29:28.154Z,333.13
2018-07-28T10:34:54.047Z,300.90
2018-07-28T10:42:24.627Z,316.00
2018-07-28T10:44:55.648Z,327.27
2018-07-28T10:48:20.354Z,326.45
2018-07-28T10:50:53.914Z,336.07
2018-07-28T10:53:25.029Z,321.73
2018-07-28T10:55:56.238Z,319.73
2018-07-28T10:58:28.135Z,341.02
2018-07-28T11:00:59.946Z,331.80
2018-07-28T11:03:30.888Z,232.80
2018-07-28T11:06:02.395Z,332.45
2018-07-28T11:08:33.391Z,338.57
2018-07-28T11:11:04.841Z,297.85
2018-07-28T11:13:36.174Z,321.45
2018-07-28T11:16:07.216Z,311.27
2018-07-28T11:18:38.134Z,339.77
2018-07-28T11:21:09.480Z,345.15
2018-07-28T11:23:52.609Z,320.37
2018-07-28T11:26:23.906Z,346.27
2018-07-28T11:28:56.345Z,358.27
2018-07-28T11:31:38.537Z,293.93
2018-07-28T11:34:22.890Z,311.98
2018-07-28T11:37:07.668Z,328.77
2018-07-28T11:39:51.560Z,324.67
2018-07-28T11:42:33.256Z,345.80
2018-07-28T11:45:11.808Z,318.77
2018-07-28T11:47:43.239Z,255.83
2018-07-28T11:50:14.198Z,322.60
2018-07-28T11:52:45.889Z,313.02
2018-07-28T11:55:17.139Z,293.80
2018-07-28T11:57:48.135Z,293.35
2018-07-28T12:00:19.319Z,301.48
2018-07-28T12:02:50.458Z,305.62
2018-07-28T12:05:21.773Z,335.13
2018-07-28T12:07:52.675Z,310.40
2018-07-28T12:10:23.905Z,333.32
2018-07-28T12:12:55.099Z,307.37
2018-07-28T12:15:26.139Z,321.37
2018-07-28T12:17:57.247Z,323.43
2018-07-28T12:20:28.545Z,311.45
2018-07-28T12:23:00.862Z,317.05
2018-07-28T12:25:32.555Z,350.55
2018-07-28T12:28:04.571Z,336.75
2018-07-28T12:30:36.919Z,297.60
2018-07-28T12:33:08.917Z,290.60
2018-07-28T12:35:39.965Z,318.00
2018-07-28T12:38:12.267Z,315.77
2018-07-28T12:40:43.587Z,303.10
2018-07-28T12:43:14.622Z,307.65
2018-07-28T12:45:45.766Z,321.60
2018-07-28T12:48:16.786Z,311.60
2018-07-28T12:50:47.825Z,304.77
2018-07-28T12:53:18.786Z,355.35
2018-07-28T12:55:50.110Z,374.67
2018-07-28T12:58:21.320Z,364.23
2018-07-28T13:00:52.408Z,353.70
2018-07-28T13:03:23.870Z,356.02
2018-07-28T13:05:55.074Z,359.37
2018-07-28T13:08:27.287Z,357.87
2018-07-28T13:10:58.445Z,351.80
2018-07-28T13:13:30.015Z,345.17
2018-07-28T13:16:05.650Z,320.67
2018-07-28T13:18:40.696Z,333.43
2018-07-28T13:21:17.623Z,339.65
2018-07-28T13:23:59.647Z,319.02
2018-07-28T13:26:31.859Z,325.25
2018-07-28T13:29:10.713Z,333.85
2018-07-28T13:31:45.631Z,360.63
2018-07-28T13:34:16.715Z,334.83
2018-07-28T13:36:47.863Z,330.20
2018-07-28T13:39:19.999Z,339.10
2018-07-28T13:41:51.598Z,339.68
2018-07-28T13:44:23.012Z,297.60
2018-07-28T13:46:54.211Z,295.97
2018-07-28T13:49:26.188Z,306.10
2018-07-28T13:51:57.287Z,307.87
2018-07-28T13:54:28.327Z,306.93
2018-07-28T13:57:00.077Z,286.00
2018-07-28T13:59:31.409Z,284.90
2018-07-28T14:02:04.097Z,262.15
2018-07-28T14:04:35.433Z,274.45
2018-07-28T14:07:06.716Z,288.90
2018-07-28T14:09:37.797Z,270.15
2018-07-28T14:12:08.896Z,257.67
2018-07-28T14:14:41.195Z,251.65
2018-07-28T14:17:12.303Z,248.40
2018-07-28T14:19:43.293Z,241.63
2018-07-28T14:22:14.748Z,238.45
2018-07-28T14:24:46.015Z,239.60
2018-07-28T14:27:17.362Z,241.00
2018-07-28T14:29:48.558Z,245.27
2018-07-28T14:32:19.467Z,263.35
2018-07-28T14:34:50.738Z,280.90
2018-07-28T14:37:22.138Z,294.25
2018-07-28T14:39:53.180Z,283.47
2018-07-28T14:42:24.257Z,260.77
2018-07-28T14:44:55.246Z,296.32
2018-07-28T14:47:27.946Z,285.93
2018-07-28T14:49:59.770Z,286.50
2018-07-28T14:52:32.350Z,282.45
2018-07-28T14:55:06.268Z,282.85
2018-07-28T14:57:39.105Z,288.90
2018-07-28T15:00:12.951Z,287.98
2018-07-28T15:02:44.756Z,282.75
2018-07-28T15:05:16.181Z,298.62
2018-07-28T15:07:49.307Z,295.97
2018-07-28T15:10:21.413Z,308.02
2018-07-28T15:12:53.360Z,295.85
2018-07-28T15:15:24.753Z,288.80
2018-07-28T15:17:56.886Z,278.55
2018-07-28T15:20:28.775Z,293.27
2018-07-28T15:23:01.284Z,289.35
2018-07-28T15:25:32.886Z,309.02
2018-07-28T15:28:05.683Z,301.95
2018-07-28T15:30:37.983Z,282.20
2018-07-28T15:33:10.912Z,294.98
2018-07-28T15:35:43.110Z,281.10
2018-07-28T15:38:14.844Z,281.45
2018-07-28T15:40:46.853Z,281.85
2018-07-28T15:43:18.816Z,286.82
2018-07-28T15:45:50.824Z,271.25
2018-07-28T15:48:22.678Z,292.32
2018-07-28T15:50:54.273Z,294.77
2018-07-28T15:53:26.136Z,264.90
2018-07-28T15:55:57.768Z,291.32
2018-07-28T15:58:29.060Z,307.65
2018-07-28T16:01:00.423Z,304.40
2018-07-28T16:03:33.845Z,296.77
2018-07-28T16:06:05.388Z,298.80
2018-07-28T16:08:37.515Z,285.90
2018-07-28T16:11:08.822Z,294.60
2018-07-28T16:13:40.581Z,316.42
2018-07-28T16:16:11.586Z,287.38
2018-07-28T16:18:44.687Z,287.45
2018-07-28T16:21:16.972Z,275.70
2018-07-28T16:23:53.426Z,303.50
2018-07-28T16:26:26.619Z,288.45
2018-07-28T16:28:58.905Z,305.83
2018-07-28T16:31:30.515Z,298.80
2018-07-28T16:34:02.231Z,293.23
2018-07-28T16:36:35.413Z,287.33
2018-07-28T16:39:14.429Z,273.48
2018-07-28T16:41:48.675Z,278.88
2018-07-28T16:44:21.462Z,285.88
2018-07-28T16:46:53.735Z,321.18
2018-07-28T16:49:25.638Z,324.67
2018-07-28T16:51:57.083Z,301.52
2018-07-28T16:54:28.471Z,296.98
2018-07-28T16:57:02.935Z,290.35
2018-07-28T16:59:37.764Z,309.60
2018-07-28T17:02:09.315Z,306.85
2018-07-28T17:04:46.959Z,299.45
2018-07-28T17:07:19.183Z,270.65
2018-07-28T17:09:50.767Z,284.00
2018-07-28T17:12:30.349Z,298.90
2018-07-28T17:15:02.482Z,314.57
2018-07-28T17:17:33.667Z,312.20
2018-07-28T17:20:06.716Z,306.93
2018-07-28T17:22:42.307Z,315.85
2018-07-28T17:25:15.927Z,295.42
2018-07-28T17:27:47.277Z,287.27
2018-07-28T17:30:18.379Z,305.35
2018-07-28T17:32:49.767Z,279.05
2018-07-28T17:35:20.871Z,289.85
2018-07-28T17:37:54.214Z,293.95
2018-07-28T17:40:26.751Z,270.70
2018-07-28T17:42:59.287Z,268.77
2018-07-28T17:45:33.188Z,264.45
2018-07-28T17:48:05.734Z,273.07
2018-07-28T17:50:40.056Z,281.85
2018-07-28T17:53:12.897Z,292.57
2018-07-28T17:55:44.128Z,273.80
2018-07-28T17:58:15.241Z,269.32
2018-07-28T18:00:46.279Z,292.13
2018-07-28T18:03:20.379Z,283.17
2018-07-28T18:05:53.021Z,266.33
2018-07-28T18:08:24.854Z,246.25
2018-07-28T18:10:55.894Z,258.40
2018-07-28T18:13:27.028Z,282.00
2018-07-28T18:15:58.011Z,277.02
2018-07-28T18:18:29.282Z,261.07
2018-07-28T18:21:00.386Z,243.52
2018-07-28T18:23:32.405Z,262.38
2018-07-28T18:26:03.815Z,264.85
2018-07-28T18:28:35.511Z,258.82
2018-07-28T18:31:06.533Z,237.05
2018-07-28T18:33:37.745Z,245.27
2018-07-28T18:36:09.048Z,246.32
2018-07-28T18:38:41.099Z,241.15
2018-07-28T18:41:12.276Z,223.32
2018-07-28T18:43:43.236Z,219.68
2018-07-28T18:46:14.390Z,222.67
2018-07-28T18:48:45.402Z,221.82
2018-07-28T18:51:16.515Z,227.93
2018-07-28T18:53:47.580Z,230.85
2018-07-28T18:56:18.728Z,226.77
2018-07-28T18:58:49.634Z,229.20
2018-07-28T19:04:23.256Z,234.60
2018-07-28T19:07:00.424Z,244.82
2018-07-28T19:09:36.399Z,256.50
2018-07-28T19:12:07.803Z,255.57
2018-07-28T19:14:39.811Z,307.65
2018-07-28T19:17:10.631Z,262.10
2018-07-28T19:19:41.735Z,249.60
2018-07-28T19:22:17.556Z,251.37
2018-07-28T19:24:48.467Z,246.28
2018-07-28T19:27:19.514Z,255.12
2018-07-28T19:29:50.685Z,264.90
2018-07-28T19:32:21.588Z,260.70
2018-07-28T19:34:52.819Z,243.78
2018-07-28T19:37:25.257Z,252.82
2018-07-28T19:39:56.147Z,257.77
2018-07-28T19:42:32.107Z,248.72
2018-07-28T19:45:03.613Z,255.98
2018-07-28T19:47:34.749Z,260.98
2018-07-28T19:50:05.691Z,257.32
2018-07-28T19:52:36.623Z,257.10
2018-07-28T19:55:07.419Z,246.93
2018-07-28T19:57:38.534Z,249.18
2018-07-28T20:00:09.372Z,232.65
2018-07-28T20:02:40.353Z,252.28
2018-07-28T20:05:11.315Z,259.35
2018-07-28T20:07:42.350Z,247.35
2018-07-28T20:10:14.597Z,246.00
2018-07-28T20:12:45.780Z,256.07
2018-07-28T20:15:16.777Z,249.32
2018-07-28T20:17:48.331Z,251.45
2018-07-28T20:20:20.991Z,244.87
2018-07-28T20:22:52.233Z,240.25
2018-07-28T20:25:27.499Z,242.15
2018-07-28T20:27:58.609Z,239.10
2018-07-28T20:30:29.606Z,243.02
2018-07-28T20:33:00.888Z,243.55
2018-07-28T20:35:32.748Z,243.35
2018-07-28T20:38:05.559Z,238.20
2018-07-28T20:40:38.031Z,231.07
2018-07-28T20:43:10.223Z,214.00
2018-07-28T20:45:41.345Z,219.68
2018-07-28T20:48:16.478Z,227.32
2018-07-28T20:50:47.536Z,237.35
2018-07-28T20:53:20.687Z,243.67
2018-07-28T20:55:51.463Z,241.35
2018-07-28T20:58:22.679Z,233.43
2018-07-28T21:00:54.176Z,224.07
2018-07-28T21:03:25.522Z,219.93
2018-07-28T21:05:56.747Z,221.43
2018-07-28T21:08:27.988Z,235.78
2018-07-28T21:10:59.122Z,227.43
2018-07-28T21:13:30.198Z,215.00
2018-07-28T21:16:01.304Z,217.68
2018-07-28T21:18:32.338Z,216.45
2018-07-28T21:21:03.810Z,215.77
2018-07-28T21:23:35.403Z,234.92
2018-07-28T21:26:06.624Z,241.97
2018-07-28T21:28:37.503Z,228.18
2018-07-28T21:31:08.847Z,220.35
2018-07-28T21:33:40.029Z,225.13
2018-07-28T21:36:11.216Z,219.20
2018-07-28T21:38:42.267Z,214.65
2018-07-28T21:41:13.235Z,221.40
2018-07-28T21:43:44.767Z,229.03
2018-07-28T21:46:15.803Z,229.85
2018-07-28T21:48:47.114Z,244.57
2018-07-28T21:51:18.918Z,235.45
2018-07-28T21:53:50.036Z,239.27
2018-07-28T21:56:24.430Z,225.15
2018-07-28T21:58:56.688Z,214.50
2018-07-28T22:01:27.743Z,215.97
2018-07-28T22:03:58.886Z,219.82
2018-07-28T22:06:29.971Z,230.32
2018-07-28T22:09:01.317Z,223.05
2018-07-28T22:11:32.184Z,228.42
2018-07-28T22:14:03.263Z,216.25
2018-07-28T22:16:34.495Z,221.25
2018-07-28T22:19:05.699Z,219.00
2018-07-28T22:21:36.624Z,209.65
2018-07-28T22:24:07.855Z,217.47
2018-07-28T22:26:39.011Z,220.97
2018-07-28T22:29:10.096Z,227.35
2018-07-28T22:31:41.500Z,216.00
2018-07-28T22:34:12.368Z,215.32
2018-07-28T22:36:44.478Z,214.17
2018-07-28T22:39:15.568Z,222.42
2018-07-28T22:41:46.571Z,216.88
2018-07-28T22:44:17.578Z,223.28
2018-07-28T22:46:48.936Z,217.45
2018-07-28T22:49:19.902Z,215.87
2018-07-28T22:51:51.131Z,213.60
2018-07-28T22:54:22.262Z,220.78
2018-07-28T22:56:53.526Z,214.75
2018-07-28T22:59:24.458Z,221.87
2018-07-28T23:01:55.371Z,220.90
2018-07-28T23:04:26.401Z,224.75
2018-07-28T23:06:57.441Z,223.43
2018-07-28T23:09:28.381Z,217.97
2018-07-28T23:11:59.531Z,224.00
2018-07-28T23:14:31.016Z,219.37
2018-07-28T23:17:02.075Z,222.02
2018-07-28T23:19:33.033Z,219.50
2018-07-28T23:22:05.384Z,235.53
2018-07-28T23:24:36.482Z,228.95
2018-07-28T23:27:07.895Z,221.53
2018-07-28T23:29:38.885Z,228.25
2018-07-28T23:32:09.889Z,222.22
2018-07-28T23:34:40.916Z,211.60
2018-07-28T23:37:12.954Z,213.55
2018-07-28T23:39:56.548Z,214.80
2018-07-28T23:42:27.617Z,212.08
2018-07-28T23:44:58.559Z,224.88
2018-07-28T23:47:29.527Z,219.47
2018-07-28T23:50:00.651Z,224.02
2018-07-28T23:52:31.996Z,219.53
2018-07-28T23:55:03.284Z,218.80
2018-07-28T23:57:34.330Z,226.07
